Time;durP1;ratioP1;P1;durP2;ratioP2;P2;SDS_P1;SDS_P2;PMS_P1;PMS_P2;Temp;Humidity;BMP_temperature;BMP_pressure;BME280_temperature;BME280_humidity;BME280_pressure;Samples;Min_cycle;Max_cycle;Signal;HPM_P1;HPM_P2
2023/05/29 00:01:35;;;;;;;9.17;6.70;;;15.10;99.90;;;;;;5031028;28;20587;-67
2023/05/29 00:04:01;;;;;;;6.90;6.30;;;15.00;99.90;;;;;;5030692;28;20179;-67
2023/05/29 00:06:27;;;;;;;7.03;6.43;;;14.90;99.90;;;;;;5031135;28;20176;-67
2023/05/29 00:08:52;;;;;;;6.53;5.97;;;14.90;99.90;;;;;;5030566;28;20183;-67
2023/05/29 00:11:18;;;;;;;7.03;5.90;;;14.90;99.90;;;;;;5030336;28;20518;-67
2023/05/29 00:13:44;;;;;;;6.33;5.60;;;14.80;99.90;;;;;;5030759;28;20596;-67
2023/05/29 00:16:09;;;;;;;7.70;6.57;;;14.70;99.90;;;;;;5030714;28;20215;-67
2023/05/29 00:18:36;;;;;;;6.87;6.37;;;14.80;99.90;;;;;;5034373;28;20171;-67
2023/05/29 00:21:02;;;;;;;6.50;6.00;;;14.70;99.90;;;;;;5034110;28;20269;-67
2023/05/29 00:23:27;;;;;;;6.20;5.63;;;14.60;99.90;;;;;;5034248;28;20176;-67
2023/05/29 00:25:53;;;;;;;7.67;6.47;;;14.60;99.90;;;;;;5034575;28;20194;-67
2023/05/29 00:28:19;;;;;;;6.50;6.00;;;14.60;99.90;;;;;;5034447;28;20179;-67
2023/05/29 00:30:45;;;;;;;6.30;5.70;;;14.50;99.90;;;;;;5034126;28;20207;-67
2023/05/29 00:33:10;;;;;;;6.17;5.13;;;14.50;99.90;;;;;;5034169;28;20187;-67
2023/05/29 00:35:36;;;;;;;6.27;5.63;;;14.40;99.90;;;;;;5034283;28;20218;-67
2023/05/29 00:38:02;;;;;;;6.43;5.83;;;14.40;99.90;;;;;;5034077;28;20262;-67
2023/05/29 00:40:27;;;;;;;6.80;6.17;;;14.40;99.90;;;;;;5033800;28;20187;-67
2023/05/29 00:42:53;;;;;;;6.73;5.87;;;14.40;99.90;;;;;;5033908;28;20183;-67
2023/05/29 00:45:19;;;;;;;7.90;6.00;;;14.40;99.90;;;;;;5032807;28;20186;-67
2023/05/29 00:47:45;;;;;;;6.30;5.90;;;14.30;99.90;;;;;;5034240;28;20626;-67
2023/05/29 00:50:13;;;;;;;6.83;6.13;;;14.30;99.90;;;;;;5033363;28;20199;-67
2023/05/29 00:52:40;;;;;;;6.87;6.27;;;14.20;99.90;;;;;;5034065;28;20191;-67
2023/05/29 00:55:06;;;;;;;6.10;5.70;;;14.10;99.90;;;;;;5033531;28;20207;-67
2023/05/29 00:57:33;;;;;;;6.23;5.83;;;14.10;99.90;;;;;;5014286;28;20176;-67
2023/05/29 01:00:00;;;;;;;5.90;5.40;;;14.10;99.90;;;;;;5013750;28;20192;-67
2023/05/29 01:02:29;;;;;;;6.10;5.53;;;14.00;99.90;;;;;;5048538;28;20680;-67
2023/05/29 01:04:56;;;;;;;7.20;6.53;;;13.90;99.90;;;;;;5033734;28;20183;-67
2023/05/29 01:07:22;;;;;;;7.20;6.50;;;13.90;99.90;;;;;;5033393;28;20191;-67
2023/05/29 01:09:47;;;;;;;7.27;6.77;;;13.80;99.90;;;;;;5032184;28;20219;-67
2023/05/29 01:12:35;;;;;;;6.00;5.60;;;13.80;99.90;;;;;;5032391;28;20218;-67
2023/05/29 01:15:30;;;;;;;5.90;5.50;;;13.80;99.90;;;;;;5031955;28;20330;-67
2023/05/29 01:18:31;;;;;;;6.20;5.63;;;13.70;99.90;;;;;;5033556;28;20183;-67
2023/05/29 01:21:41;;;;;;;5.17;4.87;;;13.70;99.90;;;;;;5032845;28;20198;-67
2023/05/29 01:24:25;;;;;;;8.17;6.33;;;13.60;99.90;;;;;;5013643;28;20187;-67
2023/05/29 01:27:10;;;;;;;6.07;5.57;;;13.60;99.90;;;;;;5018537;28;20519;-67
2023/05/29 01:29:39;;;;;;;6.23;5.73;;;13.50;99.90;;;;;;5032559;28;20278;-67
2023/05/29 01:32:05;;;;;;;8.13;5.73;;;13.40;99.90;;;;;;5032947;28;20194;-67
2023/05/29 01:34:30;;;;;;;6.10;5.60;;;13.40;99.90;;;;;;5032069;28;20673;-67
2023/05/29 01:36:56;;;;;;;6.23;5.60;;;13.30;99.90;;;;;;5032943;28;20255;-67
2023/05/29 01:39:22;;;;;;;6.53;5.80;;;13.30;99.90;;;;;;5031514;28;20195;-67
2023/05/29 01:41:48;;;;;;;6.40;5.80;;;13.30;99.90;;;;;;5032989;28;20895;-67
2023/05/29 01:44:15;;;;;;;5.90;5.40;;;13.20;99.90;;;;;;5033005;28;20266;-67
2023/05/29 01:46:41;;;;;;;6.33;5.83;;;13.30;99.90;;;;;;5033003;28;20190;-67
2023/05/29 01:49:07;;;;;;;6.93;5.57;;;13.20;99.90;;;;;;5032400;28;20180;-66
2023/05/29 01:51:33;;;;;;;6.47;6.00;;;13.20;99.90;;;;;;5033051;28;20186;-67
2023/05/29 01:54:00;;;;;;;6.70;6.20;;;13.20;99.90;;;;;;5032652;28;20642;-67
2023/05/29 01:56:27;;;;;;;7.13;6.53;;;13.10;99.90;;;;;;5032956;28;20669;-67
2023/05/29 01:58:54;;;;;;;7.23;6.53;;;13.10;99.90;;;;;;5031474;28;20233;-67
2023/05/29 02:01:21;;;;;;;7.97;6.17;;;13.10;99.90;;;;;;5032241;28;20199;-67
2023/05/29 02:03:47;;;;;;;8.37;6.10;;;13.00;99.90;;;;;;5031174;28;20182;-67
2023/05/29 02:06:12;;;;;;;6.20;5.63;;;13.00;99.90;;;;;;5032670;28;20179;-67
2023/05/29 02:08:38;;;;;;;6.77;6.27;;;13.00;99.90;;;;;;5032479;28;20229;-67
2023/05/29 02:11:04;;;;;;;6.90;6.17;;;12.90;99.90;;;;;;5030629;28;20206;-66
2023/05/29 02:13:29;;;;;;;6.47;5.97;;;12.90;99.90;;;;;;5032824;28;20660;-67
2023/05/29 02:15:55;;;;;;;9.33;6.53;;;12.80;99.90;;;;;;5032473;28;20212;-66
2023/05/29 02:18:21;;;;;;;7.13;6.43;;;12.80;99.90;;;;;;5032361;28;20256;-67
2023/05/29 02:20:46;;;;;;;6.87;6.37;;;12.80;99.90;;;;;;5032080;28;20270;-67
2023/05/29 02:23:12;;;;;;;6.67;6.17;;;12.80;99.90;;;;;;5031849;28;20260;-67
2023/05/29 02:25:38;;;;;;;8.23;5.90;;;12.70;99.90;;;;;;5032342;28;20253;-67
2023/05/29 02:28:04;;;;;;;7.90;7.03;;;12.70;99.90;;;;;;5030822;28;20199;-67
2023/05/29 02:30:30;;;;;;;7.00;6.40;;;12.70;99.90;;;;;;5031826;28;20310;-67
2023/05/29 02:32:56;;;;;;;6.20;5.80;;;12.70;99.90;;;;;;5032663;28;20229;-69
2023/05/29 02:35:22;;;;;;;9.10;6.43;;;12.60;99.90;;;;;;5033188;28;20203;-73
2023/05/29 02:37:52;;;;;;;7.17;6.57;;;12.50;99.90;;;;;;5031614;28;20184;-73
2023/05/29 02:40:18;;;;;;;9.27;6.40;;;12.50;99.90;;;;;;5032056;28;20195;-71
2023/05/29 02:42:44;;;;;;;7.13;6.33;;;12.50;99.90;;;;;;5033185;28;20175;-72
2023/05/29 02:45:10;;;;;;;7.33;5.80;;;12.40;99.90;;;;;;5033241;28;20535;-70
2023/05/29 02:47:37;;;;;;;7.57;6.83;;;12.40;99.90;;;;;;5032993;28;20178;-73
2023/05/29 02:50:03;;;;;;;7.60;6.77;;;12.40;99.90;;;;;;5032794;28;20192;-72
2023/05/29 02:52:30;;;;;;;8.27;5.80;;;12.30;99.90;;;;;;5031602;28;20529;-70
2023/05/29 02:54:56;;;;;;;8.83;6.10;;;12.30;99.90;;;;;;5031883;28;20298;-71
2023/05/29 02:57:22;;;;;;;7.17;5.80;;;12.20;99.90;;;;;;5032317;28;20199;-70
2023/05/29 02:59:47;;;;;;;7.07;6.23;;;12.20;99.90;;;;;;5032697;28;20223;-72
2023/05/29 03:02:13;;;;;;;7.20;6.50;;;12.20;99.90;;;;;;5031376;28;20187;-75
2023/05/29 03:04:39;;;;;;;7.87;5.63;;;12.20;99.90;;;;;;5032697;28;20183;-73
2023/05/29 03:07:06;;;;;;;9.63;6.73;;;12.10;99.90;;;;;;5032759;28;20171;-72
2023/05/29 03:09:32;;;;;;;6.80;5.80;;;12.00;99.90;;;;;;5032355;28;20218;-71
2023/05/29 03:11:57;;;;;;;7.93;5.90;;;12.00;99.90;;;;;;5032722;28;20172;-71
2023/05/29 03:14:23;;;;;;;9.37;6.50;;;11.90;99.90;;;;;;5032683;28;20268;-72
2023/05/29 03:16:50;;;;;;;9.87;6.03;;;11.90;99.90;;;;;;5032468;28;20667;-71
2023/05/29 03:19:16;;;;;;;6.77;5.87;;;11.80;99.90;;;;;;5032559;28;20579;-70
2023/05/29 03:21:41;;;;;;;7.33;6.30;;;11.80;99.90;;;;;;5031302;28;20168;-73
2023/05/29 03:24:07;;;;;;;7.77;6.20;;;11.80;99.90;;;;;;5032660;28;20717;-71
2023/05/29 03:26:33;;;;;;;6.67;5.90;;;11.70;99.90;;;;;;5033018;28;20265;-69
2023/05/29 03:28:58;;;;;;;7.20;5.90;;;11.70;99.90;;;;;;5032796;28;20178;-75
2023/05/29 03:31:24;;;;;;;6.80;5.83;;;11.70;99.90;;;;;;5031926;28;20230;-71
2023/05/29 03:33:50;;;;;;;7.47;5.70;;;11.70;99.90;;;;;;5032529;28;20176;-71
2023/05/29 03:36:18;;;;;;;6.70;5.80;;;11.70;99.90;;;;;;5032673;28;20211;-74
2023/05/29 03:38:44;;;;;;;9.80;6.63;;;11.70;99.90;;;;;;5032517;28;20167;-73
2023/05/29 03:41:10;;;;;;;7.83;6.27;;;11.60;99.90;;;;;;5032109;28;20617;-70
2023/05/29 03:43:36;;;;;;;8.63;6.30;;;11.60;99.90;;;;;;5032397;28;20193;-73
2023/05/29 03:46:02;;;;;;;7.00;6.30;;;11.60;99.90;;;;;;5032451;28;20237;-70
2023/05/29 03:48:27;;;;;;;8.73;6.17;;;11.60;99.90;;;;;;5033225;28;20547;-71
2023/05/29 03:50:53;;;;;;;6.40;5.90;;;11.60;99.90;;;;;;5032211;28;20207;-72
2023/05/29 03:53:19;;;;;;;6.57;5.97;;;11.60;99.90;;;;;;5036083;28;20582;-71
2023/05/29 03:55:44;;;;;;;10.67;7.00;;;11.50;99.90;;;;;;5036604;28;20567;-72
2023/05/29 03:58:12;;;;;;;10.80;6.30;;;11.60;99.90;;;;;;5036415;28;20179;-70
2023/05/29 04:00:38;;;;;;;6.80;5.83;;;11.60;99.90;;;;;;5035754;28;20207;-69
2023/05/29 04:03:04;;;;;;;11.33;6.70;;;11.60;99.90;;;;;;5036501;28;20191;-70
2023/05/29 04:05:30;;;;;;;9.83;6.20;;;11.60;99.90;;;;;;5036234;28;20211;-69
2023/05/29 04:07:56;;;;;;;13.13;6.80;;;11.60;99.90;;;;;;5035863;28;20187;-70
2023/05/29 04:10:22;;;;;;;8.07;6.80;;;11.60;99.90;;;;;;5035989;28;20665;-69
2023/05/29 04:12:47;;;;;;;8.37;7.37;;;11.60;99.90;;;;;;5034718;28;20175;-70
2023/05/29 04:15:13;;;;;;;8.07;6.10;;;11.60;99.90;;;;;;5015378;28;20192;-68
2023/05/29 04:17:39;;;;;;;7.80;5.93;;;11.60;99.90;;;;;;5015154;28;20229;-66
2023/05/29 04:20:08;;;;;;;8.80;5.57;;;11.70;99.90;;;;;;5032784;28;20234;-66
2023/05/29 04:22:35;;;;;;;7.80;5.93;;;11.70;99.90;;;;;;5034687;28;20168;-66
2023/05/29 04:25:03;;;;;;;6.33;5.53;;;11.70;99.90;;;;;;5034354;28;20184;-65
2023/05/29 04:27:29;;;;;;;11.63;6.93;;;11.80;99.90;;;;;;5034593;28;20654;-66
2023/05/29 04:29:55;;;;;;;6.97;6.47;;;11.80;99.90;;;;;;5034699;28;20719;-66
2023/05/29 04:32:21;;;;;;;11.00;6.50;;;11.80;99.90;;;;;;5034479;28;20168;-66
2023/05/29 04:34:47;;;;;;;13.63;7.10;;;11.90;99.90;;;;;;5034150;28;20207;-66
2023/05/29 04:37:13;;;;;;;9.77;5.97;;;11.90;99.90;;;;;;5033975;28;20164;-66
2023/05/29 04:39:39;;;;;;;8.40;7.53;;;12.00;99.90;;;;;;5034046;28;20567;-66
2023/05/29 04:42:05;;;;;;;8.83;5.63;;;12.00;99.90;;;;;;5033897;28;20179;-66
2023/05/29 04:44:31;;;;;;;7.27;5.40;;;12.10;99.90;;;;;;5034272;28;20179;-66
2023/05/29 04:46:56;;;;;;;8.93;6.57;;;12.10;99.90;;;;;;5034139;28;20514;-66
2023/05/29 04:49:22;;;;;;;6.47;5.87;;;12.20;99.90;;;;;;5033311;28;20761;-64
2023/05/29 04:51:48;;;;;;;13.07;6.60;;;12.30;99.90;;;;;;5033850;28;20184;-66
2023/05/29 04:54:14;;;;;;;6.00;5.40;;;12.40;99.90;;;;;;5033557;28;20676;-66
2023/05/29 04:56:40;;;;;;;9.67;6.17;;;12.50;99.90;;;;;;5034208;28;20216;-67
2023/05/29 04:59:06;;;;;;;7.13;6.27;;;12.80;99.90;;;;;;5033350;28;20218;-66
2023/05/29 05:01:33;;;;;;;6.17;5.57;;;13.10;99.90;;;;;;5033819;28;20553;-65
2023/05/29 05:04:00;;;;;;;11.17;5.73;;;13.20;99.90;;;;;;5032996;28;20186;-68
2023/05/29 05:06:25;;;;;;;9.60;5.67;;;13.50;99.90;;;;;;5033899;28;20259;-66
2023/05/29 05:08:52;;;;;;;8.57;5.27;;;13.60;99.90;;;;;;5032190;28;20724;-66
2023/05/29 05:11:23;;;;;;;10.23;5.73;;;13.90;99.90;;;;;;5032879;28;20210;-66
2023/05/29 05:13:49;;;;;;;9.10;5.93;;;14.00;99.90;;;;;;5033716;28;20172;-66
2023/05/29 05:16:14;;;;;;;8.93;5.80;;;14.10;99.90;;;;;;5033537;28;20207;-66
2023/05/29 05:18:40;;;;;;;11.53;6.00;;;14.20;99.90;;;;;;5033680;28;20178;-66
2023/05/29 05:21:06;;;;;;;6.33;5.33;;;14.30;99.90;;;;;;5032725;28;20195;-66
2023/05/29 05:23:32;;;;;;;6.60;5.40;;;14.30;99.90;;;;;;5033426;28;20184;-66
2023/05/29 05:25:57;;;;;;;8.70;6.77;;;14.30;99.90;;;;;;5033482;28;20186;-66
2023/05/29 05:28:23;;;;;;;11.33;6.37;;;14.40;99.90;;;;;;5033147;28;20179;-67
2023/05/29 05:30:49;;;;;;;13.47;6.73;;;14.40;99.90;;;;;;5031818;28;20681;-66
2023/05/29 05:33:14;;;;;;;9.03;7.77;;;14.40;99.90;;;;;;5032913;28;20179;-66
2023/05/29 05:35:40;;;;;;;5.57;5.13;;;14.40;99.90;;;;;;5033295;28;20241;-67
2023/05/29 05:38:06;;;;;;;7.23;5.57;;;14.30;99.90;;;;;;5032839;28;20174;-66
2023/05/29 05:40:32;;;;;;;9.73;5.50;;;14.40;99.90;;;;;;5032941;28;20202;-66
2023/05/29 05:42:58;;;;;;;9.67;5.93;;;14.40;99.90;;;;;;5033209;28;20258;-65
2023/05/29 05:45:24;;;;;;;7.87;5.73;;;14.50;99.90;;;;;;5032622;28;20259;-67
2023/05/29 05:47:50;;;;;;;8.87;5.70;;;14.70;99.90;;;;;;5033143;28;20186;-66
2023/05/29 05:50:15;;;;;;;10.67;7.00;;;14.90;99.90;;;;;;5032245;28;20203;-66
2023/05/29 05:52:41;;;;;;;9.80;5.50;;;15.10;99.90;;;;;;5032425;28;20187;-67
2023/05/29 05:55:07;;;;;;;7.83;5.13;;;15.40;99.90;;;;;;5032426;28;20692;-65
2023/05/29 05:57:33;;;;;;;9.77;4.73;;;15.50;99.90;;;;;;5032921;28;20180;-66
2023/05/29 06:00:00;;;;;;;7.83;5.30;;;15.60;99.90;;;;;;5032116;28;20551;-67
2023/05/29 06:02:26;;;;;;;8.77;5.23;;;15.90;99.90;;;;;;5033139;28;20659;-65
2023/05/29 06:04:51;;;;;;;9.03;5.73;;;16.20;99.90;;;;;;5032408;28;20172;-66
2023/05/29 06:07:17;;;;;;;8.47;4.97;;;16.30;99.90;;;;;;5027747;28;20653;-67
2023/05/29 06:09:43;;;;;;;5.67;4.57;;;16.40;99.90;;;;;;5031605;28;20215;-66
2023/05/29 06:12:09;;;;;;;11.17;4.80;;;16.50;99.90;;;;;;5032351;28;20198;-66
2023/05/29 06:14:35;;;;;;;7.77;4.23;;;16.70;99.90;;;;;;5030622;28;20203;-66
2023/05/29 06:17:00;;;;;;;8.23;4.67;;;17.00;99.90;;;;;;5032249;28;20183;-66
2023/05/29 06:19:26;;;;;;;6.43;4.68;;;17.30;99.90;;;;;;5030277;28;20708;-67
2023/05/29 06:21:52;;;;;;;7.43;5.03;;;17.30;99.90;;;;;;5032486;28;20168;-66
2023/05/29 06:24:18;;;;;;;6.75;4.70;;;17.50;99.90;;;;;;5031831;28;20184;-66
2023/05/29 06:26:43;;;;;;;8.32;5.72;;;17.70;99.90;;;;;;5032233;28;20199;-66
2023/05/29 06:29:09;;;;;;;7.85;5.03;;;17.80;99.90;;;;;;5031804;28;20178;-66
2023/05/29 06:31:34;;;;;;;11.52;4.70;;;17.80;99.90;;;;;;5031996;28;20539;-66
2023/05/29 06:34:00;;;;;;;10.10;5.22;;;17.80;99.90;;;;;;5032196;28;20649;-66
2023/05/29 06:36:26;;;;;;;9.90;5.40;;;17.70;99.90;;;;;;5030232;28;20245;-66
2023/05/29 06:38:52;;;;;;;5.90;4.65;;;17.70;99.90;;;;;;5031552;28;20177;-65
2023/05/29 06:41:17;;;;;;;8.75;4.43;;;17.80;99.90;;;;;;5031161;28;20211;-66
2023/05/29 06:43:43;;;;;;;9.70;4.82;;;17.90;99.90;;;;;;5031678;28;20179;-66
2023/05/29 06:46:10;;;;;;;6.60;5.05;;;18.00;99.90;;;;;;5031880;28;20194;-67
2023/05/29 06:48:35;;;;;;;7.15;4.75;;;18.30;99.90;;;;;;5031526;28;20638;-65
2023/05/29 06:51:03;;;;;;;7.63;5.03;;;18.40;99.90;;;;;;5031132;28;20238;-66
2023/05/29 06:53:29;;;;;;;8.38;4.97;;;18.90;99.90;;;;;;5031719;28;20647;-66
2023/05/29 06:55:54;;;;;;;7.07;4.90;;;19.30;99.90;;;;;;5031383;28;20300;-67
2023/05/29 06:58:20;;;;;;;7.97;6.65;;;19.60;99.90;;;;;;5031445;28;20164;-65
2023/05/29 07:00:45;;;;;;;7.43;6.30;;;19.90;99.90;;;;;;5030987;28;20191;-66
2023/05/29 07:03:11;;;;;;;8.35;4.82;;;20.00;99.90;;;;;;5031377;28;20592;-66
2023/05/29 07:05:36;;;;;;;12.02;4.82;;;20.30;99.90;;;;;;5031626;28;20187;-67
2023/05/29 07:08:02;;;;;;;10.20;5.05;;;20.30;99.90;;;;;;5030041;28;20179;-66
2023/05/29 07:10:28;;;;;;;8.20;5.18;;;20.50;99.90;;;;;;5030878;28;20195;-67
2023/05/29 07:12:53;;;;;;;7.85;4.43;;;20.50;99.90;;;;;;5031600;28;20633;-67
2023/05/29 07:15:19;;;;;;;10.18;4.93;;;20.30;99.90;;;;;;5030817;28;20222;-64
2023/05/29 07:17:44;;;;;;;6.28;4.45;;;20.40;99.90;;;;;;5032493;28;20171;-66
2023/05/29 07:20:11;;;;;;;9.40;4.85;;;20.50;99.90;;;;;;5029525;28;20598;-66
2023/05/29 07:22:36;;;;;;;7.15;5.07;;;20.60;99.90;;;;;;5031487;28;20179;-66
2023/05/29 07:25:03;;;;;;;20.02;4.88;;;20.70;99.90;;;;;;5031159;28;20176;-66
2023/05/29 07:27:29;;;;;;;6.85;4.55;;;20.80;99.90;;;;;;5030509;28;20201;-66
2023/05/29 07:29:55;;;;;;;9.73;5.07;;;21.10;99.90;;;;;;5030825;28;20199;-66
2023/05/29 07:32:21;;;;;;;10.23;6.38;;;20.80;99.90;;;;;;5030426;28;20976;-67
2023/05/29 07:34:49;;;;;;;63.55;9.57;;;20.70;99.90;;;;;;5031141;28;20199;-66
2023/05/29 07:37:15;;;;;;;7.30;4.93;;;20.70;99.90;;;;;;5030893;28;20646;-66
2023/05/29 07:39:41;;;;;;;8.27;4.35;;;20.70;99.90;;;;;;5030819;28;20206;-66
2023/05/29 07:42:06;;;;;;;7.13;4.80;;;20.90;99.90;;;;;;5030999;28;20163;-67
2023/05/29 07:44:32;;;;;;;6.93;4.20;;;21.10;99.90;;;;;;5029609;28;20228;-66
2023/05/29 07:46:57;;;;;;;6.85;4.25;;;21.20;99.90;;;;;;5031033;28;20171;-66
2023/05/29 07:49:23;;;;;;;8.93;5.05;;;21.50;99.90;;;;;;5028949;28;20199;-67
2023/05/29 07:51:49;;;;;;;6.88;4.90;;;22.00;99.90;;;;;;5031012;28;20287;-66
2023/05/29 07:54:18;;;;;;;10.27;4.43;;;22.20;99.90;;;;;;5030613;28;20202;-67
2023/05/29 07:56:44;;;;;;;8.80;4.20;;;22.20;99.90;;;;;;5030959;28;20211;-66
2023/05/29 07:59:10;;;;;;;6.55;4.55;;;22.10;99.90;;;;;;5030326;28;20530;-66
2023/05/29 08:01:37;;;;;;;6.25;4.53;;;21.90;99.90;;;;;;5030907;28;20164;-66
2023/05/29 08:04:02;;;;;;;8.20;4.00;;;21.60;99.90;;;;;;5030670;28;20202;-66
2023/05/29 08:06:28;;;;;;;10.00;4.75;;;21.70;99.90;;;;;;5031029;28;20184;-66
2023/05/29 08:08:53;;;;;;;8.90;4.90;;;21.60;99.90;;;;;;5024131;28;20197;-67
2023/05/29 08:11:22;;;;;;;6.53;4.18;;;21.30;99.90;;;;;;5030286;28;20199;-67
2023/05/29 08:13:48;;;;;;;8.57;4.30;;;21.50;99.90;;;;;;5030789;28;20180;-66
2023/05/29 08:16:15;;;;;;;5.43;4.47;;;21.90;99.90;;;;;;5030609;28;20269;-66
2023/05/29 08:18:41;;;;;;;7.72;4.03;;;22.50;99.90;;;;;;5030439;28;20175;-66
2023/05/29 08:21:07;;;;;;;8.55;4.28;;;22.30;99.90;;;;;;5029945;28;20669;-66
2023/05/29 08:23:32;;;;;;;10.00;4.78;;;22.20;99.90;;;;;;5030563;28;20200;-67
2023/05/29 08:25:58;;;;;;;9.70;4.85;;;22.40;99.90;;;;;;5030577;28;20190;-67
2023/05/29 08:28:23;;;;;;;6.55;4.55;;;22.70;99.90;;;;;;5029995;28;20675;-66
2023/05/29 08:30:49;;;;;;;7.15;4.18;;;23.30;99.90;;;;;;5029392;28;20212;-67
2023/05/29 08:33:15;;;;;;;6.55;4.15;;;23.50;99.90;;;;;;5030250;28;20346;-67
2023/05/29 08:35:41;;;;;;;6.60;4.53;;;23.60;99.90;;;;;;5030731;28;20613;-66
2023/05/29 08:38:06;;;;;;;15.63;4.88;;;23.10;99.90;;;;;;5029030;28;20180;-67
2023/05/29 08:40:32;;;;;;;7.45;4.97;;;23.30;99.90;;;;;;5033674;28;20604;-67
2023/05/29 08:43:02;;;;;;;7.85;4.97;;;23.40;99.90;;;;;;5032739;28;20267;-65
2023/05/29 08:45:29;;;;;;;10.27;4.63;;;23.20;99.90;;;;;;5034044;28;20171;-66
2023/05/29 08:47:57;;;;;;;7.90;4.20;;;22.70;99.90;;;;;;5033848;28;20241;-66
2023/05/29 08:50:23;;;;;;;8.70;4.28;;;22.40;99.90;;;;;;5033492;28;20234;-67
2023/05/29 08:52:50;;;;;;;7.43;4.93;;;22.40;99.90;;;;;;5034101;28;20210;-66
2023/05/29 08:55:16;;;;;;;7.68;5.05;;;22.50;99.90;;;;;;5033387;28;20246;-67
2023/05/29 08:57:43;;;;;;;10.68;4.30;;;22.70;99.90;;;;;;5033966;28;20246;-66
2023/05/29 09:00:12;;;;;;;6.85;4.47;;;22.80;99.90;;;;;;5032650;28;20214;-66
2023/05/29 09:02:43;;;;;;;8.27;4.30;;;22.80;99.90;;;;;;5034017;28;20540;-66
2023/05/29 09:05:10;;;;;;;8.95;4.47;;;23.30;99.90;;;;;;5033563;28;20175;-66
2023/05/29 09:07:39;;;;;;;6.18;3.80;;;23.60;99.90;;;;;;5033556;28;20179;-66
2023/05/29 09:10:15;;;;;;;4.97;3.67;;;23.30;99.90;;;;;;5032763;28;20219;-65
2023/05/29 09:12:41;;;;;;;13.27;4.63;;;23.50;99.90;;;;;;5032479;28;20210;-66
2023/05/29 09:15:20;;;;;;;7.70;4.65;;;23.30;99.90;;;;;;5033430;28;20328;-66
2023/05/29 09:17:59;;;;;;;11.55;4.60;;;23.60;99.90;;;;;;5033623;28;20237;-66
2023/05/29 09:20:25;;;;;;;8.55;4.93;;;23.90;99.90;;;;;;5032796;28;20210;-66
2023/05/29 09:23:00;;;;;;;11.25;4.68;;;23.90;99.90;;;;;;5033507;28;20171;-66
2023/05/29 09:25:28;;;;;;;11.70;3.75;;;23.50;99.90;;;;;;5033128;28;20218;-66
2023/05/29 09:28:05;;;;;;;4.85;3.83;;;23.20;99.90;;;;;;5033355;28;20510;-66
2023/05/29 09:30:51;;;;;;;6.68;3.65;;;23.00;99.90;;;;;;5032252;28;20195;-66
2023/05/29 09:33:17;;;;;;;6.78;4.03;;;22.90;99.90;;;;;;5032894;28;20185;-67
2023/05/29 09:35:45;;;;;;;30.70;4.85;;;23.00;99.90;;;;;;5033263;28;20211;-66
2023/05/29 09:38:13;;;;;;;8.13;4.65;;;23.20;99.90;;;;;;5032713;28;20183;-66
2023/05/29 09:40:40;;;;;;;10.18;5.30;;;23.40;99.90;;;;;;5032613;28;20270;-66
2023/05/29 09:43:10;;;;;;;15.07;4.43;;;23.40;99.90;;;;;;5032856;28;20183;-66
2023/05/29 09:45:43;;;;;;;9.05;4.40;;;23.50;99.90;;;;;;5032733;28;20228;-65
2023/05/29 09:48:22;;;;;;;11.25;4.30;;;23.50;99.90;;;;;;5032799;28;20274;-66
2023/05/29 09:50:49;;;;;;;9.85;4.55;;;23.50;99.90;;;;;;5032356;28;20195;-66
2023/05/29 09:53:20;;;;;;;7.18;5.07;;;23.30;99.90;;;;;;5032647;28;20179;-65
2023/05/29 09:55:47;;;;;;;6.63;5.28;;;23.20;99.90;;;;;;5032667;28;20203;-66
2023/05/29 09:58:15;;;;;;;9.88;5.65;;;23.10;99.90;;;;;;5031511;28;20545;-66
2023/05/29 10:00:41;;;;;;;12.95;5.70;;;23.10;99.90;;;;;;5032218;28;20214;-66
2023/05/29 10:03:07;;;;;;;8.98;5.40;;;23.10;99.90;;;;;;5032645;28;20207;-66
2023/05/29 10:05:33;;;;;;;6.10;4.72;;;22.90;99.90;;;;;;5031159;28;20591;-66
2023/05/29 10:08:01;;;;;;;5.43;4.80;;;23.10;99.90;;;;;;5032140;28;20182;-66
2023/05/29 10:10:28;;;;;;;5.35;4.28;;;23.50;99.90;;;;;;5032358;28;20195;-66
2023/05/29 10:12:55;;;;;;;12.77;5.22;;;23.60;99.90;;;;;;5032454;28;20176;-66
2023/05/29 10:15:24;;;;;;;7.20;4.80;;;24.10;99.90;;;;;;5032359;28;20685;-65
2023/05/29 10:18:38;;;;;;;7.65;6.75;;;24.40;99.90;;;;;;5031425;28;20175;-66
2023/05/29 10:21:06;;;;;;;8.77;5.60;;;24.70;99.90;;;;;;4990290;28;20209;-65
2023/05/29 10:23:34;;;;;;;9.85;5.43;;;25.00;99.90;;;;;;4995442;28;20180;-66
2023/05/29 10:26:26;;;;;;;11.23;5.75;;;25.10;99.90;;;;;;5022561;28;20188;-66
2023/05/29 10:29:10;;;;;;;7.35;4.40;;;25.50;99.90;;;;;;5029610;28;20266;-66
2023/05/29 10:32:05;;;;;;;7.03;4.90;;;25.10;99.90;;;;;;5032203;28;20174;-65
2023/05/29 10:34:41;;;;;;;7.50;4.45;;;24.80;99.90;;;;;;5032173;28;20457;-65
2023/05/29 10:37:18;;;;;;;9.15;4.75;;;25.10;99.90;;;;;;5032095;28;20194;-65
2023/05/29 10:39:43;;;;;;;7.93;5.65;;;25.20;99.90;;;;;;5031483;28;20191;-66
2023/05/29 10:42:40;;;;;;;8.18;4.15;;;25.40;99.90;;;;;;5032079;28;20177;-66
2023/05/29 10:45:06;;;;;;;9.10;4.63;;;25.70;99.90;;;;;;5031815;28;20179;-66
2023/05/29 10:47:31;;;;;;;9.52;4.78;;;25.50;99.90;;;;;;5031545;28;20190;-65
2023/05/29 10:50:01;;;;;;;10.25;4.43;;;25.10;99.90;;;;;;5031346;28;20241;-65
2023/05/29 10:52:35;;;;;;;9.90;5.60;;;24.80;99.90;;;;;;5031897;28;20533;-66
2023/05/29 10:55:03;;;;;;;8.32;6.20;;;25.00;99.90;;;;;;5031551;28;20196;-66
2023/05/29 10:57:30;;;;;;;6.68;4.53;;;24.90;99.90;;;;;;5031960;28;20164;-66
2023/05/29 11:00:04;;;;;;;6.70;4.18;;;24.90;99.90;;;;;;5031586;28;20191;-65
2023/05/29 11:02:30;;;;;;;8.10;4.63;;;25.00;99.90;;;;;;5031502;28;20263;-65
2023/05/29 11:05:24;;;;;;;7.82;4.90;;;25.20;99.90;;;;;;5030315;28;20279;-65
2023/05/29 11:08:02;;;;;;;8.25;4.25;;;25.50;99.90;;;;;;5011974;28;20176;-66
2023/05/29 11:11:05;;;;;;;7.55;4.68;;;25.80;99.90;;;;;;5015506;28;20202;-65
2023/05/29 11:13:35;;;;;;;8.80;4.57;;;25.90;99.90;;;;;;5031558;28;20511;-66
2023/05/29 11:16:36;;;;;;;8.27;4.32;;;25.80;99.90;;;;;;5031158;28;20364;-65
2023/05/29 11:19:07;;;;;;;6.43;3.97;;;25.90;99.90;;;;;;5031084;28;20252;-65
2023/05/29 11:21:51;;;;;;;10.23;4.53;;;25.80;99.90;;;;;;5029999;28;20310;-66
2023/05/29 11:24:27;;;;;;;8.73;4.28;;;25.90;99.90;;;;;;5031081;28;20543;-66
2023/05/29 11:26:54;;;;;;;9.63;4.30;;;26.10;99.90;;;;;;5031590;28;20225;-65
2023/05/29 11:29:26;;;;;;;6.95;4.20;;;25.90;99.90;;;;;;5030710;28;20232;-66
2023/05/29 11:32:02;;;;;;;7.13;4.13;;;25.80;99.90;;;;;;5031438;28;20187;-65
2023/05/29 11:34:29;;;;;;;6.40;4.15;;;25.90;99.90;;;;;;5031021;28;20175;-66
2023/05/29 11:37:00;;;;;;;9.80;4.43;;;26.40;99.90;;;;;;5031450;28;20176;-65
2023/05/29 11:39:26;;;;;;;10.70;4.50;;;26.30;99.90;;;;;;5030674;28;20194;-66
2023/05/29 11:41:55;;;;;;;10.65;5.32;;;25.70;99.90;;;;;;5031235;28;20176;-65
2023/05/29 11:44:23;;;;;;;4.97;4.35;;;25.70;99.90;;;;;;5030983;28;20531;-66
2023/05/29 11:47:02;;;;;;;6.70;4.75;;;25.50;99.90;;;;;;5031056;28;20537;-65
2023/05/29 11:49:33;;;;;;;6.90;4.55;;;25.30;99.90;;;;;;5028508;28;20234;-66
2023/05/29 11:52:07;;;;;;;9.02;4.30;;;25.50;99.90;;;;;;5030810;28;20538;-66
2023/05/29 11:54:34;;;;;;;8.30;4.37;;;25.80;99.90;;;;;;5031245;28;20253;-66
2023/05/29 11:57:01;;;;;;;6.90;4.47;;;26.00;99.90;;;;;;5030902;28;20182;-66
2023/05/29 11:59:30;;;;;;;7.57;3.95;;;25.90;99.90;;;;;;5030603;28;20690;-65
2023/05/29 12:01:56;;;;;;;5.18;4.35;;;25.80;99.90;;;;;;5030759;28;20179;-65
2023/05/29 12:04:22;;;;;;;7.93;4.18;;;25.60;99.90;;;;;;5029670;28;20268;-65
2023/05/29 12:06:47;;;;;;;10.55;4.03;;;25.60;99.90;;;;;;5031029;28;20175;-65
2023/05/29 12:09:29;;;;;;;8.05;4.10;;;25.60;99.90;;;;;;5030501;28;20183;-66
2023/05/29 12:12:02;;;;;;;8.95;4.68;;;25.50;99.90;;;;;;5030690;28;20175;-66
2023/05/29 12:14:28;;;;;;;7.72;3.92;;;25.70;99.90;;;;;;5034254;28;20175;-65
2023/05/29 12:16:53;;;;;;;9.45;3.80;;;26.00;99.90;;;;;;5035650;28;20712;-65
2023/05/29 12:19:19;;;;;;;7.53;5.00;;;26.10;99.90;;;;;;5033987;28;20179;-66
2023/05/29 12:21:45;;;;;;;10.65;4.00;;;26.40;99.90;;;;;;5034460;28;20167;-65
2023/05/29 12:24:11;;;;;;;7.43;4.13;;;26.30;99.90;;;;;;5034257;28;20630;-65
2023/05/29 12:26:37;;;;;;;7.85;5.75;;;26.10;99.90;;;;;;5034834;28;20186;-65
2023/05/29 12:29:05;;;;;;;8.05;6.20;;;26.00;99.90;;;;;;5034169;28;20239;-66
2023/05/29 12:31:32;;;;;;;8.82;5.20;;;25.80;99.90;;;;;;5034414;28;20305;-65
2023/05/29 12:34:06;;;;;;;6.78;4.30;;;25.60;99.90;;;;;;5034517;28;20172;-65
2023/05/29 12:36:33;;;;;;;5.93;5.05;;;25.20;99.90;;;;;;5014620;28;20214;-65
2023/05/29 12:38:58;;;;;;;8.15;4.55;;;25.30;99.90;;;;;;5014042;28;20518;-66
2023/05/29 12:41:26;;;;;;;5.85;4.68;;;25.40;99.90;;;;;;5032968;28;20202;-66
2023/05/29 12:43:56;;;;;;;5.47;4.50;;;25.60;99.90;;;;;;5034032;28;20179;-65
2023/05/29 12:46:23;;;;;;;6.30;4.22;;;25.40;99.90;;;;;;5034012;28;20202;-66
2023/05/29 12:48:49;;;;;;;7.45;4.80;;;25.40;99.90;;;;;;5032440;28;20183;-65
2023/05/29 12:51:17;;;;;;;6.22;4.25;;;25.60;99.90;;;;;;5033334;28;20196;-66